createdAt,value
2022-12-27T00:00:02.200Z,0.00
2022-12-27T00:01:02.229Z,0.00
2022-12-27T00:02:02.157Z,0.00
2022-12-27T00:03:02.168Z,0.00
2022-12-27T00:04:02.115Z,0.00
2022-12-27T00:05:02.166Z,0.00
2022-12-27T00:06:02.095Z,0.00
2022-12-27T00:07:02.107Z,0.00
2022-12-27T00:08:02.096Z,0.00
2022-12-27T00:09:02.076Z,0.00
2022-12-27T00:10:02.091Z,0.00
2022-12-27T00:11:02.040Z,0.00
2022-12-27T00:12:02.073Z,0.00
2022-12-27T00:13:02.000Z,0.00
2022-12-27T00:14:02.036Z,0.00
2022-12-27T00:15:02.010Z,0.00
2022-12-27T00:16:02.026Z,0.00
2022-12-27T00:17:01.995Z,0.00
2022-12-27T00:18:01.941Z,0.00
2022-12-27T00:19:01.964Z,0.00
2022-12-27T00:20:06.849Z,0.00
2022-12-27T00:21:02.913Z,0.00
2022-12-27T00:22:01.894Z,0.00
2022-12-27T00:23:01.889Z,0.00
2022-12-27T00:24:01.897Z,0.00
2022-12-27T00:25:01.906Z,0.00
2022-12-27T00:26:01.865Z,0.00
2022-12-27T00:27:01.836Z,0.00
2022-12-27T00:28:01.876Z,0.00
2022-12-27T00:29:01.836Z,0.00
2022-12-27T00:30:01.825Z,0.00
2022-12-27T00:31:01.840Z,0.00
2022-12-27T00:32:01.868Z,0.00
2022-12-27T00:33:01.765Z,0.00
2022-12-27T00:34:01.786Z,0.00
2022-12-27T00:35:01.758Z,0.00
2022-12-27T00:36:01.787Z,0.00
2022-12-27T00:37:01.845Z,0.00
2022-12-27T00:38:01.750Z,0.00
2022-12-27T00:39:01.724Z,0.00
2022-12-27T00:40:01.719Z,0.00
2022-12-27T00:41:01.692Z,0.00
2022-12-27T00:42:01.673Z,0.00
2022-12-27T00:43:01.699Z,0.00
2022-12-27T00:44:01.681Z,0.00
2022-12-27T00:45:01.655Z,0.00
2022-12-27T00:46:01.710Z,0.00
2022-12-27T00:47:01.606Z,0.00
2022-12-27T00:48:01.655Z,0.00
2022-12-27T00:49:01.622Z,0.00
2022-12-27T00:50:01.634Z,0.00
2022-12-27T00:51:01.593Z,0.00
2022-12-27T00:52:01.560Z,0.00
2022-12-27T00:53:01.602Z,0.00
2022-12-27T00:54:01.555Z,0.00
2022-12-27T00:55:01.539Z,0.00
2022-12-27T00:56:01.539Z,0.00
2022-12-27T00:57:01.517Z,0.00
2022-12-27T00:58:01.508Z,0.00
2022-12-27T00:59:01.511Z,0.00
2022-12-27T01:00:07.861Z,0.00
2022-12-27T01:01:02.515Z,0.00
2022-12-27T01:02:01.537Z,0.00
2022-12-27T01:03:01.611Z,0.00
2022-12-27T01:04:01.466Z,0.00
2022-12-27T01:05:01.432Z,0.00
2022-12-27T01:06:01.394Z,0.00
2022-12-27T01:07:01.407Z,0.00
2022-12-27T01:08:01.395Z,0.00
2022-12-27T01:09:01.406Z,0.00
2022-12-27T01:10:01.384Z,0.00
2022-12-27T01:11:01.366Z,0.00
2022-12-27T01:12:01.316Z,0.00
2022-12-27T01:13:01.337Z,0.00
2022-12-27T01:14:01.299Z,0.00
2022-12-27T01:15:01.309Z,0.00
2022-12-27T01:16:01.293Z,0.00
2022-12-27T01:17:01.386Z,0.00
2022-12-27T01:18:01.269Z,0.00
2022-12-27T01:19:01.264Z,0.00
2022-12-27T01:20:01.226Z,0.00
2022-12-27T01:21:01.257Z,0.00
2022-12-27T01:22:01.213Z,0.00
2022-12-27T01:23:01.218Z,0.00
2022-12-27T01:24:01.194Z,0.00
2022-12-27T01:25:01.195Z,0.00
2022-12-27T01:26:01.167Z,0.00
2022-12-27T01:27:01.202Z,0.00
2022-12-27T01:28:01.201Z,0.00
2022-12-27T01:29:01.128Z,0.00
2022-12-27T01:30:01.132Z,0.00
2022-12-27T01:31:01.116Z,0.00
2022-12-27T01:32:01.132Z,0.00
2022-12-27T01:33:01.096Z,0.00
2022-12-27T01:34:01.217Z,0.00
2022-12-27T01:35:01.051Z,0.00
2022-12-27T01:36:01.073Z,0.00
2022-12-27T01:37:01.040Z,0.00
2022-12-27T01:38:01.031Z,0.00
2022-12-27T01:39:01.035Z,0.00
2022-12-27T01:40:01.047Z,0.00
2022-12-27T01:41:01.005Z,0.00
2022-12-27T01:42:01.014Z,0.00
2022-12-27T01:43:00.961Z,0.00
2022-12-27T01:44:00.983Z,0.00
2022-12-27T01:45:00.964Z,0.00
2022-12-27T01:46:00.960Z,0.00
2022-12-27T01:47:00.983Z,0.00
2022-12-27T01:48:00.913Z,0.00
2022-12-27T01:49:03.307Z,0.00
2022-12-27T01:50:00.895Z,0.00
2022-12-27T01:51:00.884Z,0.00
2022-12-27T01:52:00.900Z,0.00
2022-12-27T01:53:00.927Z,0.00
2022-12-27T01:54:00.837Z,0.00
2022-12-27T01:55:00.860Z,0.00
2022-12-27T01:56:00.833Z,0.00
2022-12-27T01:57:00.810Z,0.00
2022-12-27T01:58:00.834Z,0.00
2022-12-27T01:59:00.804Z,0.00
2022-12-27T02:00:00.811Z,0.00
2022-12-27T02:01:00.776Z,0.00
2022-12-27T02:02:00.918Z,0.00
2022-12-27T02:03:00.792Z,0.00
2022-12-27T02:04:00.715Z,0.00
2022-12-27T02:05:00.747Z,0.00
2022-12-27T02:06:00.739Z,0.00
2022-12-27T02:07:00.703Z,0.00
2022-12-27T02:08:00.697Z,0.00
2022-12-27T02:09:00.670Z,0.00
2022-12-27T02:10:00.704Z,0.00
2022-12-27T02:11:00.645Z,0.00
2022-12-27T02:12:00.658Z,0.00
2022-12-27T02:13:00.642Z,0.00
2022-12-27T02:14:00.597Z,0.00
2022-12-27T02:15:00.618Z,0.00
2022-12-27T02:16:00.623Z,0.00
2022-12-27T02:17:00.637Z,0.00
2022-12-27T02:18:00.592Z,0.00
2022-12-27T02:19:00.553Z,0.00
2022-12-27T02:20:00.556Z,0.00
2022-12-27T02:21:00.573Z,0.00
2022-12-27T02:22:00.552Z,0.00
2022-12-27T02:23:00.510Z,0.00
2022-12-27T02:24:00.503Z,0.00
2022-12-27T02:25:00.507Z,0.00
2022-12-27T02:26:00.479Z,0.00
2022-12-27T02:27:00.471Z,0.00
2022-12-27T02:28:00.487Z,0.00
2022-12-27T02:29:00.443Z,0.00
2022-12-27T02:30:00.453Z,0.00
2022-12-27T02:31:00.501Z,0.00
2022-12-27T02:32:00.400Z,0.00
2022-12-27T02:33:00.390Z,0.00
2022-12-27T02:34:00.432Z,0.00
2022-12-27T02:35:00.393Z,0.00
2022-12-27T02:36:00.380Z,0.00
2022-12-27T02:37:00.334Z,0.00
2022-12-27T02:38:00.343Z,0.00
2022-12-27T02:39:00.356Z,0.00
2022-12-27T02:40:00.335Z,0.00
2022-12-27T02:41:00.310Z,0.00
2022-12-27T02:42:00.272Z,0.00
2022-12-27T02:43:00.264Z,0.00
2022-12-27T02:44:00.274Z,0.00
2022-12-27T02:45:00.276Z,0.00
2022-12-27T02:46:00.322Z,0.00
2022-12-27T02:47:00.236Z,0.00
2022-12-27T02:48:00.237Z,0.00
2022-12-27T02:49:00.195Z,0.00
2022-12-27T02:50:00.238Z,0.00
2022-12-27T02:51:00.176Z,0.00
2022-12-27T02:52:00.191Z,0.00
2022-12-27T02:53:00.155Z,0.00
2022-12-27T02:54:00.139Z,0.00
2022-12-27T02:55:00.164Z,0.00
2022-12-27T02:56:00.129Z,0.00
2022-12-27T02:57:00.149Z,0.00
2022-12-27T02:58:00.105Z,0.00
2022-12-27T02:59:00.128Z,0.00
2022-12-27T03:00:00.095Z,0.00
2022-12-27T03:01:00.111Z,0.00
2022-12-27T03:02:00.157Z,0.00
2022-12-27T03:03:00.075Z,0.00
2022-12-27T03:04:00.047Z,0.00
2022-12-27T03:05:00.020Z,0.00
2022-12-27T03:06:00.028Z,0.00
2022-12-27T03:07:00.001Z,0.00
2022-12-27T03:08:00.022Z,0.00
2022-12-27T03:08:59.956Z,0.00
2022-12-27T03:09:59.983Z,0.00
2022-12-27T03:10:59.968Z,0.00
2022-12-27T03:11:59.928Z,0.00
2022-12-27T03:12:59.937Z,0.00
2022-12-27T03:13:59.941Z,0.00
2022-12-27T03:14:59.912Z,0.00
2022-12-27T03:15:59.963Z,0.00
2022-12-27T03:16:59.884Z,0.00
2022-12-27T03:17:59.859Z,0.00
2022-12-27T03:18:59.901Z,0.00
2022-12-27T03:19:59.856Z,0.00
2022-12-27T03:20:59.890Z,0.00
2022-12-27T03:21:59.841Z,0.00
2022-12-27T03:22:59.819Z,0.00
2022-12-27T03:23:59.800Z,0.00
2022-12-27T03:24:59.770Z,0.00
2022-12-27T03:25:59.778Z,0.00
2022-12-27T03:26:59.798Z,0.00
2022-12-27T03:27:59.785Z,0.00
2022-12-27T03:28:59.765Z,0.00
2022-12-27T03:29:59.754Z,0.00
2022-12-27T03:30:59.767Z,0.00
2022-12-27T03:31:59.722Z,0.00
2022-12-27T03:32:59.703Z,0.00
2022-12-27T03:33:59.687Z,0.00
2022-12-27T03:34:59.722Z,0.00
2022-12-27T03:35:59.695Z,0.00
2022-12-27T03:36:59.643Z,0.00
2022-12-27T03:37:59.658Z,0.00
2022-12-27T03:38:59.650Z,0.00
2022-12-27T03:39:59.603Z,0.00
2022-12-27T03:40:59.646Z,0.00
2022-12-27T03:41:59.599Z,0.00
2022-12-27T03:42:59.589Z,0.00
2022-12-27T03:43:59.568Z,0.00
2022-12-27T03:44:59.597Z,0.00
2022-12-27T03:45:59.584Z,0.00
2022-12-27T03:46:59.575Z,0.00
2022-12-27T03:47:59.518Z,0.00
2022-12-27T03:48:59.508Z,0.00
2022-12-27T03:49:59.495Z,0.00
2022-12-27T03:50:59.569Z,0.00
2022-12-27T03:51:59.504Z,0.00
2022-12-27T03:52:59.470Z,0.00
2022-12-27T03:53:59.477Z,0.00
2022-12-27T03:54:59.440Z,0.00
2022-12-27T03:55:59.437Z,0.00
2022-12-27T03:56:59.445Z,0.00
2022-12-27T03:57:59.431Z,0.00
2022-12-27T03:58:59.415Z,0.00
2022-12-27T03:59:59.390Z,0.00
2022-12-27T04:00:59.370Z,0.00
2022-12-27T04:01:59.463Z,0.00
2022-12-27T04:02:59.507Z,0.00
2022-12-27T04:03:59.372Z,0.00
2022-12-27T04:04:59.319Z,0.00
2022-12-27T04:05:59.325Z,0.00
2022-12-27T04:06:59.315Z,0.00
2022-12-27T04:07:59.342Z,0.00
2022-12-27T04:08:59.351Z,0.00
2022-12-27T04:09:59.249Z,0.00
2022-12-27T04:10:59.265Z,0.00
2022-12-27T04:11:59.259Z,0.00
2022-12-27T04:12:59.270Z,0.00
2022-12-27T04:13:59.233Z,0.00
2022-12-27T04:14:59.252Z,0.00
2022-12-27T04:15:59.255Z,0.00
2022-12-27T04:16:59.208Z,0.00
2022-12-27T04:17:59.192Z,0.00
2022-12-27T04:18:59.156Z,0.00
2022-12-27T04:19:59.241Z,0.00
2022-12-27T04:20:59.155Z,0.00
2022-12-27T04:21:59.145Z,0.00
2022-12-27T04:22:59.120Z,0.00
2022-12-27T04:23:59.165Z,0.00
2022-12-27T04:24:59.089Z,0.00
2022-12-27T04:25:59.123Z,0.00
2022-12-27T04:26:59.061Z,0.00
2022-12-27T04:27:59.066Z,0.00
2022-12-27T04:28:59.074Z,0.00
2022-12-27T04:29:59.022Z,0.00
2022-12-27T04:30:59.069Z,0.00
2022-12-27T04:31:59.032Z,0.00
2022-12-27T04:32:59.023Z,0.00
2022-12-27T04:33:59.006Z,0.00
2022-12-27T04:34:58.967Z,0.00
2022-12-27T04:36:04.312Z,0.00
2022-12-27T04:36:59.964Z,0.00
2022-12-27T04:37:58.954Z,0.00
2022-12-27T04:38:58.968Z,0.00
2022-12-27T04:39:58.905Z,0.00
2022-12-27T04:40:58.923Z,0.00
2022-12-27T04:41:58.893Z,0.00
2022-12-27T04:42:58.933Z,0.00
2022-12-27T04:43:58.878Z,0.00
2022-12-27T04:44:58.874Z,0.00
2022-12-27T04:45:58.879Z,0.00
2022-12-27T04:46:58.849Z,0.00
2022-12-27T04:47:58.826Z,0.00
2022-12-27T04:48:58.824Z,0.00
2022-12-27T04:49:58.820Z,0.00
2022-12-27T04:50:58.832Z,0.00
2022-12-27T04:51:58.789Z,0.00
2022-12-27T04:52:58.765Z,0.00
2022-12-27T04:53:58.781Z,0.00
2022-12-27T04:54:58.768Z,0.00
2022-12-27T04:55:58.754Z,0.00
2022-12-27T04:56:58.707Z,0.00
2022-12-27T04:57:58.720Z,0.00
2022-12-27T04:58:58.700Z,0.00
2022-12-27T04:59:58.720Z,0.00
2022-12-27T05:00:58.711Z,0.00
2022-12-27T05:01:58.756Z,0.00
2022-12-27T05:02:58.699Z,0.00
2022-12-27T05:03:58.669Z,0.00
2022-12-27T05:04:58.672Z,0.00
2022-12-27T05:05:58.611Z,0.00
2022-12-27T05:06:58.646Z,0.00
2022-12-27T05:07:58.609Z,0.00
2022-12-27T05:08:58.646Z,0.00
2022-12-27T05:09:58.624Z,0.00
2022-12-27T05:10:58.574Z,0.00
2022-12-27T05:11:58.552Z,0.00
2022-12-27T05:12:58.564Z,0.00
2022-12-27T05:13:58.537Z,0.00
2022-12-27T05:14:58.544Z,0.00
2022-12-27T05:15:58.554Z,0.00
2022-12-27T05:16:58.510Z,0.00
2022-12-27T05:17:58.483Z,0.00
2022-12-27T05:18:58.459Z,0.00
2022-12-27T05:19:58.484Z,0.00
2022-12-27T05:20:58.460Z,0.00
2022-12-27T05:21:58.445Z,0.00
2022-12-27T05:22:58.481Z,0.00
2022-12-27T05:24:04.911Z,0.00
2022-12-27T05:24:59.408Z,0.00
2022-12-27T05:25:58.391Z,0.00
2022-12-27T05:26:58.371Z,0.00
2022-12-27T05:27:58.390Z,0.00
2022-12-27T05:28:58.386Z,0.00
2022-12-27T05:29:58.383Z,0.00
2022-12-27T05:30:58.403Z,0.00
2022-12-27T05:31:58.312Z,0.00
2022-12-27T05:32:58.354Z,0.00
2022-12-27T05:33:58.326Z,0.00
2022-12-27T05:34:58.370Z,0.00
2022-12-27T05:35:58.263Z,0.00
2022-12-27T05:36:58.268Z,0.00
2022-12-27T05:37:58.245Z,0.00
2022-12-27T05:38:58.292Z,0.00
2022-12-27T05:39:58.257Z,0.00
2022-12-27T05:40:58.277Z,0.00
2022-12-27T05:41:58.197Z,0.00
2022-12-27T05:42:58.208Z,0.00
2022-12-27T05:44:02.052Z,0.00
2022-12-27T05:44:59.241Z,0.00
2022-12-27T05:45:58.154Z,0.00
2022-12-27T05:46:58.194Z,0.00
2022-12-27T05:47:58.284Z,0.00
2022-12-27T05:48:58.128Z,0.00
2022-12-27T05:49:58.107Z,0.00
2022-12-27T05:50:58.095Z,0.00
2022-12-27T05:51:58.142Z,0.00
2022-12-27T05:52:58.075Z,0.00
2022-12-27T05:53:58.096Z,0.00
2022-12-27T05:54:58.081Z,0.00
2022-12-27T05:55:58.054Z,0.00
2022-12-27T05:56:58.036Z,0.00
2022-12-27T05:57:58.033Z,0.00
2022-12-27T05:58:58.020Z,0.00
2022-12-27T05:59:58.039Z,0.00
2022-12-27T06:00:57.992Z,0.00
2022-12-27T06:01:58.099Z,0.00
2022-12-27T06:02:58.147Z,0.00
2022-12-27T06:03:57.951Z,0.00
2022-12-27T06:04:57.984Z,0.00
2022-12-27T06:05:57.960Z,0.00
2022-12-27T06:06:57.918Z,0.00
2022-12-27T06:07:57.921Z,0.00
2022-12-27T06:08:57.890Z,0.00
2022-12-27T06:09:57.888Z,0.00
2022-12-27T06:10:57.923Z,0.00
2022-12-27T06:11:57.866Z,0.00
2022-12-27T06:12:57.864Z,0.00
2022-12-27T06:13:57.856Z,0.00
2022-12-27T06:14:57.833Z,0.00
2022-12-27T06:15:57.830Z,0.00
2022-12-27T06:16:57.827Z,0.00
2022-12-27T06:17:57.832Z,0.00
2022-12-27T06:18:57.770Z,0.00
2022-12-27T06:19:57.813Z,0.00
2022-12-27T06:20:57.752Z,0.00
2022-12-27T06:21:57.741Z,0.00
2022-12-27T06:22:57.722Z,0.00
2022-12-27T06:23:57.756Z,0.00
2022-12-27T06:24:57.729Z,0.00
2022-12-27T06:25:57.714Z,0.00
2022-12-27T06:26:57.673Z,0.00
2022-12-27T06:27:57.678Z,0.00
2022-12-27T06:28:57.675Z,0.00
2022-12-27T06:29:57.678Z,0.00
2022-12-27T06:30:57.668Z,0.00
2022-12-27T06:31:57.688Z,0.00
2022-12-27T06:32:57.617Z,0.00
2022-12-27T06:33:57.634Z,0.00
2022-12-27T06:34:57.584Z,0.00
2022-12-27T06:35:57.596Z,4.00
2022-12-27T06:36:57.555Z,4.00
2022-12-27T06:37:57.556Z,0.00
2022-12-27T06:38:57.543Z,4.00
2022-12-27T06:39:57.578Z,4.00
2022-12-27T06:40:57.538Z,0.00
2022-12-27T06:41:57.497Z,4.00
2022-12-27T06:42:57.496Z,0.00
2022-12-27T06:43:57.512Z,4.00
2022-12-27T06:44:57.481Z,4.00
2022-12-27T06:45:57.595Z,4.00
2022-12-27T06:46:57.459Z,8.00
2022-12-27T06:47:57.437Z,4.00
2022-12-27T06:48:57.432Z,8.00
2022-12-27T06:49:57.407Z,8.00
2022-12-27T06:50:57.415Z,12.00
2022-12-27T06:51:59.783Z,12.00
2022-12-27T06:52:57.396Z,16.00
2022-12-27T06:53:57.384Z,20.00
2022-12-27T06:54:57.364Z,24.00
2022-12-27T06:55:57.350Z,28.00
2022-12-27T06:56:57.387Z,32.00
2022-12-27T06:57:57.361Z,32.00
2022-12-27T06:58:57.321Z,40.00
2022-12-27T06:59:57.317Z,44.00
2022-12-27T07:00:57.330Z,52.00
2022-12-27T07:01:57.417Z,56.00
2022-12-27T07:02:57.362Z,64.00
2022-12-27T07:03:57.296Z,64.00
2022-12-27T07:04:57.239Z,84.00
2022-12-27T07:05:57.227Z,92.00
2022-12-27T07:06:57.271Z,96.00
2022-12-27T07:07:57.265Z,108.00
2022-12-27T07:08:57.224Z,120.00
2022-12-27T07:09:57.181Z,128.00
2022-12-27T07:10:57.203Z,148.00
2022-12-27T07:11:57.176Z,164.00
2022-12-27T07:12:57.176Z,180.00
2022-12-27T07:13:57.147Z,188.00
2022-12-27T07:14:57.168Z,208.00
2022-12-27T07:15:57.103Z,224.00
2022-12-27T07:16:57.172Z,244.00
2022-12-27T07:17:57.115Z,264.00
2022-12-27T07:18:57.114Z,284.00
2022-12-27T07:19:57.115Z,308.00
2022-12-27T07:20:57.101Z,324.00
2022-12-27T07:21:57.059Z,348.00
2022-12-27T07:22:57.034Z,372.00
2022-12-27T07:23:57.026Z,404.00
2022-12-27T07:24:57.020Z,416.00
2022-12-27T07:25:57.038Z,428.00
2022-12-27T07:26:57.030Z,460.00
2022-12-27T07:27:57.009Z,504.00
2022-12-27T07:28:56.970Z,520.00
2022-12-27T07:29:56.959Z,524.00
2022-12-27T07:30:56.989Z,548.00
2022-12-27T07:31:57.046Z,584.00
2022-12-27T07:32:56.943Z,652.00
2022-12-27T07:33:56.960Z,688.00
2022-12-27T07:37:20.251Z,640.00
2022-12-27T07:38:17.174Z,668.00
2022-12-27T07:39:17.127Z,656.00
2022-12-27T07:40:17.118Z,696.00
2022-12-27T07:41:17.117Z,760.00
2022-12-27T07:42:17.126Z,792.00
2022-12-27T07:45:40.881Z,688.00
2022-12-27T07:46:37.315Z,720.00
2022-12-27T07:47:37.343Z,720.00
2022-12-27T07:48:37.308Z,764.00
2022-12-27T07:49:37.303Z,792.00
2022-12-27T07:50:37.269Z,932.00
2022-12-27T07:51:37.277Z,1064.00
2022-12-27T07:52:37.324Z,1052.00
2022-12-27T07:53:37.256Z,1128.00
2022-12-27T07:54:37.239Z,1192.00
2022-12-27T07:55:37.213Z,1312.00
2022-12-27T07:56:37.240Z,1332.00
2022-12-27T07:57:37.211Z,1384.00
2022-12-27T07:58:37.195Z,1452.00
2022-12-27T07:59:37.176Z,1532.00
2022-12-27T08:00:37.175Z,1732.00
2022-12-27T08:01:37.260Z,1872.00
2022-12-27T08:02:37.219Z,1988.00
2022-12-27T08:03:37.178Z,2052.00
2022-12-27T08:04:37.166Z,2312.00
2022-12-27T08:05:37.120Z,2376.00
2022-12-27T08:06:37.120Z,2532.00
2022-12-27T08:07:37.123Z,2436.00
2022-12-27T08:08:37.141Z,2292.00
2022-12-27T08:09:37.077Z,2272.00
2022-12-27T08:10:37.053Z,2252.00
2022-12-27T08:11:37.072Z,2168.00
2022-12-27T08:12:37.077Z,2228.00
2022-12-27T08:13:37.061Z,2104.00
2022-12-27T08:14:37.040Z,2156.00
2022-12-27T08:15:37.006Z,2252.00
2022-12-27T08:16:37.045Z,2216.00
2022-12-27T08:17:37.008Z,2468.00
2022-12-27T08:18:36.992Z,2468.00
2022-12-27T08:19:37.000Z,2352.00
2022-12-27T08:20:36.946Z,2664.00
2022-12-27T08:21:36.964Z,2480.00
2022-12-27T08:22:36.949Z,2336.00
2022-12-27T08:23:36.928Z,2360.00
2022-12-27T08:24:36.914Z,2048.00
2022-12-27T08:25:36.909Z,1924.00
2022-12-27T08:26:36.903Z,1896.00
2022-12-27T08:27:36.862Z,1888.00
2022-12-27T08:28:36.960Z,1952.00
2022-12-27T08:29:36.862Z,1988.00
2022-12-27T08:30:36.914Z,2012.00
2022-12-27T08:31:36.797Z,2024.00
2022-12-27T08:32:36.813Z,2036.00
2022-12-27T08:33:36.802Z,2056.00
2022-12-27T08:34:36.839Z,2068.00
2022-12-27T08:35:54.026Z,2088.00
2022-12-27T08:36:54.558Z,2092.00
2022-12-27T08:37:37.730Z,2108.00
2022-12-27T08:38:36.719Z,2136.00
2022-12-27T08:39:36.732Z,2236.00
2022-12-27T08:40:36.774Z,2260.00
2022-12-27T08:41:36.702Z,2360.00
2022-12-27T08:42:36.691Z,2464.00
2022-12-27T08:43:36.660Z,2340.00
2022-12-27T08:44:36.722Z,2276.00
2022-12-27T08:51:00.254Z,4044.00
2022-12-27T08:52:00.202Z,4152.00
2022-12-27T08:53:00.177Z,4288.00
2022-12-27T08:54:00.176Z,5044.00
2022-12-27T08:55:00.194Z,5224.00
2022-12-27T08:56:00.168Z,4948.00
2022-12-27T08:57:00.146Z,5036.00
2022-12-27T08:58:00.143Z,4584.00
2022-12-27T08:59:00.156Z,3628.00
2022-12-27T09:00:00.137Z,3320.00
2022-12-27T09:01:00.158Z,4104.00
2022-12-27T09:02:00.216Z,5056.00
2022-12-27T09:03:00.165Z,5460.00
2022-12-27T09:04:00.107Z,5704.00
2022-12-27T09:05:00.116Z,5428.00
2022-12-27T09:06:00.047Z,6120.00
2022-12-27T09:07:00.057Z,6760.00
2022-12-27T09:08:00.022Z,6292.00
2022-12-27T09:09:00.036Z,5976.00
2022-12-27T09:10:00.009Z,4936.00
2022-12-27T09:11:00.008Z,4120.00
2022-12-27T09:12:03.113Z,3412.00
2022-12-27T09:13:00.992Z,3176.00
2022-12-27T09:13:59.935Z,3052.00
2022-12-27T09:14:59.944Z,3028.00
2022-12-27T09:15:59.943Z,3032.00
2022-12-27T09:16:59.987Z,3044.00
2022-12-27T09:17:59.898Z,3044.00
2022-12-27T09:18:59.913Z,3356.00
2022-12-27T09:19:59.877Z,3396.00
2022-12-27T09:20:59.856Z,4044.00
2022-12-27T09:21:59.879Z,4732.00
2022-12-27T09:22:59.826Z,4756.00
2022-12-27T09:23:59.845Z,4120.00
2022-12-27T09:24:59.882Z,4084.00
2022-12-27T09:25:59.797Z,3968.00
2022-12-27T09:26:59.777Z,3628.00
2022-12-27T09:27:59.804Z,3300.00
2022-12-27T09:28:59.745Z,2860.00
2022-12-27T09:29:59.747Z,2464.00
2022-12-27T09:30:59.819Z,2508.00
2022-12-27T09:31:59.750Z,3144.00
2022-12-27T09:32:59.752Z,3764.00
2022-12-27T09:33:59.717Z,4448.00
2022-12-27T09:34:59.687Z,4820.00
2022-12-27T09:35:59.685Z,4020.00
2022-12-27T09:36:59.702Z,3888.00
2022-12-27T09:37:59.665Z,4392.00
2022-12-27T09:38:59.706Z,4272.00
2022-12-27T09:39:59.681Z,4556.00
2022-12-27T09:40:59.619Z,5256.00
2022-12-27T09:43:16.264Z,4480.00
2022-12-27T09:44:00.633Z,4256.00
2022-12-27T09:44:59.595Z,3432.00
2022-12-27T09:45:59.637Z,2660.00
2022-12-27T09:46:59.569Z,2272.00
2022-12-27T09:47:59.602Z,2436.00
2022-12-27T09:48:59.553Z,2428.00
2022-12-27T09:49:59.562Z,2656.00
2022-12-27T09:50:59.518Z,3468.00
2022-12-27T09:51:59.527Z,3860.00
2022-12-27T09:52:59.527Z,3448.00
2022-12-27T09:53:59.498Z,3580.00
2022-12-27T09:55:04.642Z,3784.00
2022-12-27T09:56:00.466Z,2908.00
2022-12-27T09:57:19.362Z,2852.00
2022-12-27T09:58:00.432Z,2636.00
2022-12-27T09:58:59.479Z,2736.00
2022-12-27T09:59:59.414Z,2468.00
2022-12-27T10:00:59.435Z,2540.00
2022-12-27T10:01:59.529Z,2356.00
2022-12-27T10:02:59.448Z,2712.00
2022-12-27T10:03:59.381Z,2300.00
2022-12-27T10:06:00.440Z,2208.00
2022-12-27T10:06:59.353Z,2228.00
2022-12-27T10:07:59.338Z,2532.00
2022-12-27T10:08:59.351Z,2624.00
2022-12-27T10:09:59.291Z,2748.00
2022-12-27T10:10:59.275Z,2848.00
2022-12-27T10:11:59.295Z,3904.00
2022-12-27T10:12:59.256Z,4024.00
2022-12-27T10:13:59.310Z,3152.00
2022-12-27T10:14:59.260Z,3180.00
2022-12-27T10:15:59.239Z,3220.00
2022-12-27T10:16:59.207Z,3324.00
2022-12-27T10:17:59.214Z,3660.00
2022-12-27T10:18:59.237Z,3732.00
2022-12-27T10:19:59.218Z,3508.00
2022-12-27T10:20:59.210Z,4364.00
2022-12-27T10:21:59.172Z,4984.00
2022-12-27T10:23:05.865Z,5920.00
2022-12-27T10:24:00.175Z,7456.00
2022-12-27T10:24:59.159Z,6848.00
2022-12-27T10:25:59.162Z,6648.00
2022-12-27T10:26:59.092Z,7772.00
2022-12-27T10:27:59.084Z,7880.00
2022-12-27T10:28:59.070Z,6696.00
2022-12-27T10:29:59.162Z,6356.00
2022-12-27T10:30:59.181Z,6944.00
2022-12-27T10:31:59.044Z,6060.00
2022-12-27T10:32:59.058Z,6124.00
2022-12-27T10:33:59.013Z,6084.00
2022-12-27T10:34:59.031Z,6164.00
2022-12-27T10:35:59.027Z,5228.00
2022-12-27T10:36:59.007Z,5068.00
2022-12-27T10:37:58.980Z,5880.00
2022-12-27T10:38:58.981Z,6024.00
2022-12-27T10:39:59.002Z,5992.00
2022-12-27T10:40:58.932Z,5340.00
2022-12-27T10:41:58.940Z,6860.00
2022-12-27T10:42:58.979Z,6716.00
2022-12-27T10:43:58.963Z,6192.00
2022-12-27T10:44:58.937Z,5156.00
2022-12-27T10:45:58.863Z,7200.00
2022-12-27T10:46:58.950Z,7368.00
2022-12-27T10:47:58.866Z,6632.00
2022-12-27T10:50:00.025Z,7068.00
2022-12-27T10:50:58.814Z,8084.00
2022-12-27T10:51:58.827Z,9212.00
2022-12-27T10:52:58.795Z,13808.00
2022-12-27T10:53:58.819Z,18368.00
2022-12-27T10:54:58.793Z,18432.00
2022-12-27T10:55:58.795Z,19904.00
2022-12-27T10:56:58.745Z,19744.00
2022-12-27T10:57:58.771Z,20384.00
2022-12-27T10:58:59.306Z,20480.00
2022-12-27T10:59:58.716Z,20800.00
2022-12-27T11:00:58.924Z,21600.00
2022-12-27T11:01:58.776Z,21984.00
2022-12-27T11:02:58.764Z,22144.00
2022-12-27T11:03:58.703Z,22464.00
2022-12-27T11:04:58.658Z,22208.00
2022-12-27T11:05:58.641Z,17216.00
2022-12-27T11:06:58.707Z,22048.00
2022-12-27T11:07:58.621Z,21632.00
2022-12-27T11:08:58.651Z,20672.00
2022-12-27T11:09:58.600Z,21600.00
2022-12-27T11:10:58.626Z,21216.00
2022-12-27T11:11:58.628Z,21056.00
2022-12-27T11:12:58.624Z,21408.00
2022-12-27T11:13:58.550Z,21600.00
2022-12-27T11:14:58.593Z,21280.00
2022-12-27T11:15:59.220Z,21664.00
2022-12-27T11:16:58.525Z,21632.00
2022-12-27T11:17:58.502Z,19904.00
2022-12-27T11:18:58.527Z,19392.00
2022-12-27T11:19:58.498Z,16736.00
2022-12-27T11:20:58.540Z,11068.00
2022-12-27T11:21:58.507Z,19424.00
2022-12-27T11:22:58.503Z,18880.00
2022-12-27T11:23:58.476Z,20064.00
2022-12-27T11:24:58.451Z,20928.00
2022-12-27T11:25:58.454Z,21696.00
2022-12-27T11:26:58.424Z,22272.00
2022-12-27T11:27:58.385Z,23424.00
2022-12-27T11:28:58.380Z,22688.00
2022-12-27T11:29:58.364Z,21856.00
2022-12-27T11:30:58.597Z,21024.00
2022-12-27T11:31:58.405Z,21248.00
2022-12-27T11:32:58.375Z,21312.00
2022-12-27T11:33:58.353Z,20768.00
2022-12-27T11:34:58.346Z,21088.00
2022-12-27T11:35:58.320Z,22144.00
2022-12-27T11:36:58.325Z,22688.00
2022-12-27T11:37:58.296Z,22112.00
2022-12-27T11:38:58.284Z,22144.00
2022-12-27T11:39:58.285Z,21120.00
2022-12-27T11:40:58.261Z,20320.00
2022-12-27T11:41:58.289Z,19520.00
2022-12-27T11:42:58.225Z,18848.00
2022-12-27T11:43:58.206Z,19424.00
2022-12-27T11:44:58.207Z,18912.00
2022-12-27T11:45:58.218Z,18336.00
2022-12-27T11:46:59.538Z,19104.00
2022-12-27T11:47:58.215Z,18624.00
2022-12-27T11:48:58.157Z,9888.00
2022-12-27T11:49:58.145Z,17728.00
2022-12-27T11:50:58.123Z,17120.00
2022-12-27T11:51:58.105Z,16896.00
2022-12-27T11:52:58.132Z,17472.00
2022-12-27T11:53:58.119Z,18656.00
2022-12-27T11:54:58.085Z,18944.00
2022-12-27T11:55:58.070Z,17408.00
2022-12-27T11:56:58.069Z,16448.00
2022-12-27T11:57:58.088Z,16256.00
2022-12-27T11:58:58.060Z,17024.00
2022-12-27T11:59:58.033Z,16992.00
2022-12-27T12:01:02.077Z,16800.00
2022-12-27T12:01:59.071Z,16128.00
2022-12-27T12:02:58.149Z,16384.00
2022-12-27T12:03:58.026Z,17120.00
2022-12-27T12:04:57.958Z,17664.00
2022-12-27T12:05:57.984Z,17152.00
2022-12-27T12:06:57.932Z,16480.00
2022-12-27T12:07:57.962Z,16384.00
2022-12-27T12:08:57.951Z,16928.00
2022-12-27T12:09:57.937Z,16832.00
2022-12-27T12:10:57.903Z,16736.00
2022-12-27T12:11:57.921Z,16672.00
2022-12-27T12:12:57.886Z,16192.00
2022-12-27T12:13:57.876Z,15744.00
2022-12-27T12:14:57.913Z,15264.00
2022-12-27T12:15:57.855Z,15200.00
2022-12-27T12:16:57.842Z,15424.00
2022-12-27T12:17:57.840Z,16032.00
2022-12-27T12:18:57.805Z,15840.00
2022-12-27T12:19:57.816Z,16416.00
2022-12-27T12:20:57.837Z,16960.00
2022-12-27T12:21:57.776Z,16832.00
2022-12-27T12:22:57.767Z,16384.00
2022-12-27T12:23:57.735Z,15424.00
2022-12-27T12:24:57.808Z,13444.00
2022-12-27T12:25:57.771Z,16672.00
2022-12-27T12:26:57.740Z,16288.00
2022-12-27T12:27:57.744Z,16160.00
2022-12-27T12:28:59.672Z,16352.00
2022-12-27T12:29:57.708Z,16160.00
2022-12-27T12:30:57.728Z,16064.00
2022-12-27T12:31:57.728Z,15648.00
2022-12-27T12:32:57.646Z,15424.00
2022-12-27T12:33:57.649Z,5572.00
2022-12-27T12:34:57.611Z,3428.00
2022-12-27T12:35:57.612Z,15136.00
2022-12-27T12:36:57.640Z,14752.00
2022-12-27T12:37:57.623Z,15808.00
2022-12-27T12:38:57.580Z,10740.00
2022-12-27T12:39:57.577Z,16768.00
2022-12-27T12:40:57.550Z,17344.00
2022-12-27T12:41:57.562Z,16736.00
2022-12-27T12:42:57.521Z,3428.00
2022-12-27T12:43:57.523Z,3464.00
2022-12-27T12:44:57.528Z,12112.00
2022-12-27T12:45:57.569Z,4164.00
2022-12-27T12:46:57.467Z,14328.00
2022-12-27T12:47:57.492Z,13044.00
2022-12-27T12:48:57.478Z,14004.00
2022-12-27T12:49:57.465Z,14560.00
2022-12-27T12:50:57.462Z,14076.00
2022-12-27T12:51:57.423Z,13800.00
2022-12-27T12:52:57.403Z,11776.00
2022-12-27T12:53:57.424Z,3148.00